createdAt,value
2023-01-19T00:02:03.303Z,80.13
2023-01-19T00:04:32.409Z,80.04
2023-01-19T00:07:07.385Z,79.86
2023-01-19T00:09:42.186Z,79.48
2023-01-19T00:12:11.463Z,79.73
2023-01-19T00:14:40.432Z,79.58
2023-01-19T00:17:09.241Z,79.66
2023-01-19T00:19:38.232Z,80.15
2023-01-19T00:22:07.210Z,80.46
2023-01-19T00:24:36.238Z,80.04
2023-01-19T00:27:05.534Z,79.50
2023-01-19T00:29:37.691Z,79.65
2023-01-19T00:32:07.608Z,79.20
2023-01-19T00:34:39.058Z,79.12
2023-01-19T00:37:08.464Z,78.87
2023-01-19T00:39:37.969Z,79.12
2023-01-19T00:42:25.773Z,79.08
2023-01-19T00:45:00.440Z,79.20
2023-01-19T00:47:29.336Z,79.84
2023-01-19T00:49:59.499Z,79.95
2023-01-19T00:52:32.718Z,80.12
2023-01-19T00:55:01.557Z,79.54
2023-01-19T00:57:30.931Z,79.45
2023-01-19T01:00:05.796Z,79.48
2023-01-19T01:02:39.717Z,79.30
2023-01-19T01:05:14.302Z,79.28
2023-01-19T01:07:44.707Z,78.88
2023-01-19T01:10:16.842Z,79.08
2023-01-19T01:12:55.511Z,79.39
2023-01-19T01:15:32.134Z,79.42
2023-01-19T01:18:00.962Z,80.02
2023-01-19T01:20:30.623Z,80.44
2023-01-19T01:22:59.987Z,80.21
2023-01-19T01:25:36.911Z,80.11
2023-01-19T01:28:08.355Z,79.78
2023-01-19T01:30:40.577Z,79.20
2023-01-19T01:33:11.171Z,79.06
2023-01-19T01:35:40.113Z,79.29
2023-01-19T01:38:11.983Z,79.04
2023-01-19T01:40:41.622Z,79.62
2023-01-19T01:43:13.181Z,79.65
2023-01-19T01:45:46.149Z,79.57
2023-01-19T01:48:21.808Z,79.87
2023-01-19T01:51:13.228Z,80.59
2023-01-19T01:53:45.006Z,80.32
2023-01-19T01:56:21.821Z,80.06
2023-01-19T01:58:52.470Z,79.37
2023-01-19T02:01:40.348Z,79.38
2023-01-19T02:04:09.758Z,79.26
2023-01-19T02:06:58.193Z,79.13
2023-01-19T02:09:54.809Z,79.02
2023-01-19T02:12:42.887Z,79.04
2023-01-19T02:15:20.289Z,79.37
2023-01-19T02:17:50.447Z,79.71
2023-01-19T02:20:22.036Z,79.88
2023-01-19T02:22:52.734Z,80.06
2023-01-19T02:25:22.011Z,79.51
2023-01-19T02:27:51.639Z,79.44
2023-01-19T02:30:21.522Z,78.83
2023-01-19T02:33:00.436Z,79.03
2023-01-19T02:35:34.541Z,78.97
2023-01-19T02:38:05.555Z,79.09
2023-01-19T02:40:36.601Z,79.31
2023-01-19T02:43:09.386Z,79.76
2023-01-19T02:45:39.673Z,79.93
2023-01-19T02:48:07.714Z,79.71
2023-01-19T02:50:45.684Z,79.74
2023-01-19T02:53:42.157Z,79.64
2023-01-19T02:56:46.173Z,79.11
2023-01-19T02:59:25.159Z,78.96
2023-01-19T03:02:09.064Z,79.18
2023-01-19T03:04:53.905Z,79.38
2023-01-19T03:07:47.281Z,79.07
2023-01-19T03:10:22.412Z,79.54
2023-01-19T03:13:02.818Z,79.84
2023-01-19T03:15:38.795Z,80.13
2023-01-19T03:18:11.993Z,79.74
2023-01-19T03:20:45.706Z,79.81
2023-01-19T03:23:17.359Z,79.38
2023-01-19T03:25:49.256Z,79.32
2023-01-19T03:28:27.259Z,79.23
2023-01-19T03:31:05.368Z,79.42
2023-01-19T03:33:41.380Z,80.16
2023-01-19T03:36:16.958Z,80.43
2023-01-19T03:38:49.797Z,80.57
2023-01-19T03:41:24.689Z,81.20
2023-01-19T03:43:55.492Z,80.79
2023-01-19T03:46:29.068Z,80.21
2023-01-19T03:49:01.165Z,80.36
2023-01-19T03:51:31.281Z,80.54
2023-01-19T03:54:05.719Z,79.92
2023-01-19T03:56:35.548Z,80.02
2023-01-19T03:59:08.189Z,79.81
2023-01-19T04:01:37.527Z,79.70
2023-01-19T04:04:06.361Z,80.25
2023-01-19T04:06:38.188Z,81.01
2023-01-19T04:09:07.581Z,81.54
2023-01-19T04:11:36.629Z,81.11
2023-01-19T04:14:08.726Z,80.88
2023-01-19T04:16:38.521Z,81.16
2023-01-19T04:19:10.718Z,81.20
2023-01-19T04:21:42.706Z,80.88
2023-01-19T04:24:12.060Z,81.02
2023-01-19T04:26:40.979Z,81.52
2023-01-19T04:29:10.255Z,81.80
2023-01-19T04:31:39.367Z,81.65
2023-01-19T04:34:08.482Z,81.90
2023-01-19T04:36:37.447Z,81.68
2023-01-19T04:39:08.482Z,81.53
2023-01-19T04:41:37.671Z,81.19
2023-01-19T04:44:07.586Z,81.19
2023-01-19T04:46:39.745Z,80.84
2023-01-19T04:49:12.390Z,80.32
2023-01-19T04:51:41.476Z,80.76
2023-01-19T04:54:10.925Z,80.45
2023-01-19T04:56:40.333Z,80.55
2023-01-19T04:59:12.127Z,81.08
2023-01-19T05:01:41.233Z,81.48
2023-01-19T05:04:10.392Z,81.15
2023-01-19T05:06:39.533Z,81.19
2023-01-19T05:09:08.581Z,81.24
2023-01-19T05:11:40.997Z,81.01
2023-01-19T05:14:13.125Z,80.55
2023-01-19T05:16:42.417Z,80.74
2023-01-19T05:19:12.690Z,81.01
2023-01-19T05:21:44.724Z,81.64
2023-01-19T05:24:14.036Z,81.57
2023-01-19T05:26:43.363Z,81.77
2023-01-19T05:29:12.403Z,81.25
2023-01-19T05:31:41.523Z,81.24
2023-01-19T05:34:12.903Z,81.25
2023-01-19T05:36:44.972Z,80.94
2023-01-19T05:39:16.667Z,81.02
2023-01-19T05:41:48.675Z,81.13
2023-01-19T05:44:20.619Z,81.38
2023-01-19T05:46:53.142Z,81.57
2023-01-19T05:49:22.418Z,81.16
2023-01-19T05:52:01.410Z,81.51
2023-01-19T05:54:30.749Z,81.18
2023-01-19T05:57:02.999Z,81.18
2023-01-19T05:59:32.129Z,81.12
2023-01-19T06:02:04.114Z,81.72
2023-01-19T06:04:33.955Z,81.56
2023-01-19T06:07:06.743Z,81.58
2023-01-19T06:09:35.786Z,81.67
2023-01-19T06:12:08.359Z,81.26
2023-01-19T06:14:37.894Z,81.42
2023-01-19T06:17:07.222Z,81.15
2023-01-19T06:19:36.514Z,81.14
2023-01-19T06:22:06.070Z,80.85
2023-01-19T06:24:38.719Z,80.78
2023-01-19T06:27:07.883Z,81.45
2023-01-19T06:29:37.045Z,81.83
2023-01-19T06:32:07.810Z,81.33
2023-01-19T06:34:36.666Z,81.35
2023-01-19T06:37:05.552Z,81.19
2023-01-19T06:39:34.890Z,81.17
2023-01-19T06:42:03.982Z,81.34
2023-01-19T06:44:36.202Z,80.99
2023-01-19T06:47:14.931Z,81.27
2023-01-19T06:49:45.668Z,81.27
2023-01-19T06:52:16.479Z,81.52
2023-01-19T06:54:46.013Z,81.66
2023-01-19T06:57:15.510Z,81.48
2023-01-19T06:59:44.907Z,81.40
2023-01-19T07:02:26.895Z,81.36
2023-01-19T07:04:57.285Z,81.15
2023-01-19T07:07:26.486Z,81.16
2023-01-19T07:10:04.371Z,81.14
2023-01-19T07:12:36.506Z,80.87
2023-01-19T07:15:11.166Z,81.24
2023-01-19T07:17:41.949Z,81.43
2023-01-19T07:20:14.029Z,81.73
2023-01-19T07:22:46.596Z,81.55
2023-01-19T07:25:16.474Z,81.11
2023-01-19T07:27:45.566Z,80.80
2023-01-19T07:30:17.390Z,80.70
2023-01-19T07:32:46.581Z,80.62
2023-01-19T07:35:15.712Z,80.45
2023-01-19T07:37:45.519Z,80.61
2023-01-19T07:40:15.549Z,80.92
2023-01-19T07:42:48.753Z,81.12
2023-01-19T07:45:24.249Z,81.02
2023-01-19T07:47:53.514Z,80.46
2023-01-19T07:50:48.110Z,80.37
2023-01-19T07:53:18.197Z,80.34
2023-01-19T07:55:47.184Z,80.13
2023-01-19T07:58:16.592Z,80.08
2023-01-19T08:00:50.521Z,80.37
2023-01-19T08:03:19.862Z,80.68
2023-01-19T08:05:51.879Z,81.08
2023-01-19T08:08:21.210Z,80.71
2023-01-19T08:10:52.295Z,80.43
2023-01-19T08:13:21.853Z,80.08
2023-01-19T08:15:52.318Z,80.12
2023-01-19T08:18:22.335Z,79.97
2023-01-19T08:20:51.986Z,79.95
2023-01-19T08:23:21.959Z,79.78
2023-01-19T08:25:51.493Z,79.92
2023-01-19T08:28:22.159Z,80.33
2023-01-19T08:30:55.632Z,80.54
2023-01-19T08:33:27.357Z,80.58
2023-01-19T08:35:57.642Z,80.41
2023-01-19T08:38:33.607Z,80.29
2023-01-19T08:41:03.219Z,79.94
2023-01-19T08:43:34.652Z,79.49
2023-01-19T08:46:09.053Z,79.45
2023-01-19T08:48:39.825Z,79.07
2023-01-19T08:51:09.788Z,79.40
2023-01-19T08:53:39.074Z,79.79
2023-01-19T08:56:13.355Z,80.16
2023-01-19T08:58:45.037Z,79.60
2023-01-19T09:01:16.393Z,79.13
2023-01-19T09:03:46.307Z,79.05
2023-01-19T09:06:21.205Z,78.70
2023-01-19T09:08:50.338Z,78.76
2023-01-19T09:11:20.355Z,78.69
2023-01-19T09:13:53.251Z,78.53
2023-01-19T09:16:23.217Z,78.45
2023-01-19T09:18:52.621Z,78.42
2023-01-19T09:21:21.663Z,78.82
2023-01-19T09:23:51.007Z,79.38
2023-01-19T09:26:23.437Z,78.99
2023-01-19T09:28:52.864Z,79.14
2023-01-19T09:31:22.590Z,78.75
2023-01-19T09:33:55.091Z,78.35
2023-01-19T09:36:24.432Z,78.60
2023-01-19T09:38:58.649Z,78.50
2023-01-19T09:41:38.089Z,78.49
2023-01-19T09:44:14.954Z,78.54
2023-01-19T09:46:51.084Z,78.86
2023-01-19T09:49:26.485Z,79.14
2023-01-19T09:52:05.711Z,78.91
2023-01-19T09:54:43.931Z,78.64
2023-01-19T09:57:14.197Z,79.11
2023-01-19T09:59:47.328Z,78.59
2023-01-19T10:02:27.819Z,78.73
2023-01-19T10:05:01.980Z,78.59
2023-01-19T10:07:52.971Z,78.65
2023-01-19T10:10:26.253Z,78.87
2023-01-19T10:13:10.456Z,79.28
2023-01-19T10:15:55.003Z,79.46
2023-01-19T10:18:35.591Z,79.31
2023-01-19T10:21:14.897Z,78.99
2023-01-19T10:23:50.481Z,78.82
2023-01-19T10:26:23.374Z,78.87
2023-01-19T10:29:00.661Z,78.90
2023-01-19T10:31:35.867Z,78.75
2023-01-19T10:34:20.452Z,78.81
2023-01-19T10:36:59.579Z,78.57
2023-01-19T10:39:38.969Z,78.67
2023-01-19T10:42:20.639Z,79.27
2023-01-19T10:44:50.816Z,79.14
2023-01-19T10:47:25.106Z,79.10
2023-01-19T10:49:54.794Z,78.77
2023-01-19T10:52:31.030Z,78.86
2023-01-19T10:55:23.089Z,78.62
2023-01-19T10:57:53.137Z,78.64
2023-01-19T11:00:37.207Z,78.68
2023-01-19T11:03:24.639Z,78.76
2023-01-19T11:05:54.166Z,78.82
2023-01-19T11:08:36.528Z,79.16
2023-01-19T11:11:08.120Z,79.18
2023-01-19T11:13:38.467Z,79.13
2023-01-19T11:16:10.428Z,78.93
2023-01-19T11:18:45.827Z,79.05
2023-01-19T11:21:17.062Z,78.83
2023-01-19T11:23:50.562Z,78.78
2023-01-19T11:26:32.668Z,78.77
2023-01-19T11:29:05.396Z,78.95
2023-01-19T11:31:35.755Z,79.03
2023-01-19T11:34:26.007Z,79.37
2023-01-19T11:37:01.415Z,79.37
2023-01-19T11:39:49.927Z,79.68
2023-01-19T11:42:24.911Z,79.40
2023-01-19T11:45:12.768Z,78.95
2023-01-19T11:47:45.280Z,78.98
2023-01-19T11:50:22.540Z,79.19
2023-01-19T11:53:04.201Z,78.53
2023-01-19T11:55:40.261Z,78.97
2023-01-19T11:58:16.419Z,79.14
2023-01-19T12:00:50.512Z,79.13
2023-01-19T12:03:25.460Z,79.48
2023-01-19T12:06:04.787Z,79.38
2023-01-19T12:08:39.730Z,79.32
2023-01-19T12:11:15.013Z,78.91
2023-01-19T12:13:47.166Z,78.82
2023-01-19T12:16:22.791Z,78.60
2023-01-19T12:19:02.227Z,78.44
2023-01-19T12:21:36.190Z,78.37
2023-01-19T12:24:16.236Z,78.42
2023-01-19T12:26:58.339Z,78.68
2023-01-19T12:29:41.616Z,79.13
2023-01-19T12:32:35.532Z,78.92
2023-01-19T12:35:08.952Z,78.70
2023-01-19T12:37:43.416Z,78.88
2023-01-19T12:40:24.858Z,78.30
2023-01-19T12:43:01.240Z,78.75
2023-01-19T12:45:40.865Z,78.55
2023-01-19T12:48:26.311Z,78.65
2023-01-19T12:50:56.114Z,78.81
2023-01-19T12:53:36.125Z,78.81
2023-01-19T12:56:12.428Z,79.36
2023-01-19T12:58:50.064Z,79.22
2023-01-19T13:01:24.567Z,79.42
2023-01-19T13:04:03.766Z,79.06
2023-01-19T13:07:05.373Z,79.24
2023-01-19T13:09:36.928Z,79.09
2023-01-19T13:12:23.464Z,78.57
2023-01-19T13:15:29.162Z,78.49
2023-01-19T13:18:07.304Z,78.56
2023-01-19T13:20:47.253Z,79.16
2023-01-19T13:23:23.296Z,79.54
2023-01-19T13:26:07.197Z,79.32
2023-01-19T13:28:44.912Z,78.97
2023-01-19T13:31:14.902Z,79.18
2023-01-19T13:33:49.898Z,79.03
2023-01-19T13:36:28.049Z,78.72
2023-01-19T13:39:09.112Z,78.99
2023-01-19T13:41:41.435Z,78.66
2023-01-19T13:44:18.665Z,78.74
2023-01-19T13:46:49.152Z,79.06
2023-01-19T13:49:24.938Z,79.32
2023-01-19T13:52:12.709Z,79.74
2023-01-19T13:54:50.839Z,79.99
2023-01-19T13:57:29.104Z,79.34
2023-01-19T14:00:20.625Z,79.25
2023-01-19T14:02:56.544Z,79.35
2023-01-19T14:05:29.800Z,78.94
2023-01-19T14:08:13.376Z,78.53
2023-01-19T14:10:45.406Z,78.79
2023-01-19T14:13:24.492Z,78.81
2023-01-19T14:15:57.202Z,78.90
2023-01-19T14:18:30.388Z,79.14
2023-01-19T14:21:03.768Z,79.33
2023-01-19T14:23:50.654Z,79.69
2023-01-19T14:26:42.609Z,79.65
2023-01-19T14:29:24.189Z,78.88
2023-01-19T14:32:14.900Z,78.59
2023-01-19T14:34:46.368Z,78.61
2023-01-19T14:37:28.323Z,78.05
2023-01-19T14:40:17.909Z,78.15
2023-01-19T14:42:53.075Z,78.20
2023-01-19T14:45:27.476Z,78.20
2023-01-19T14:48:08.860Z,78.27
2023-01-19T14:50:41.504Z,78.89
2023-01-19T14:53:18.530Z,79.02
2023-01-19T14:55:51.215Z,78.43
2023-01-19T14:58:22.775Z,78.42
2023-01-19T15:00:55.272Z,78.21
2023-01-19T15:03:31.994Z,78.10
2023-01-19T15:06:16.498Z,78.01
2023-01-19T15:08:48.338Z,77.81
2023-01-19T15:11:26.323Z,78.34
2023-01-19T15:13:56.422Z,78.15
2023-01-19T15:16:28.081Z,78.63
2023-01-19T15:18:57.850Z,78.87
2023-01-19T15:21:41.712Z,78.93
2023-01-19T15:24:13.660Z,78.88
2023-01-19T15:26:43.654Z,78.82
2023-01-19T15:29:21.159Z,78.30
2023-01-19T15:31:51.225Z,78.12
2023-01-19T15:34:22.513Z,78.64
2023-01-19T15:36:51.818Z,78.68
2023-01-19T15:39:25.601Z,78.84
2023-01-19T15:41:57.903Z,78.42
2023-01-19T15:44:32.670Z,78.99
2023-01-19T15:47:01.710Z,79.05
2023-01-19T15:49:30.819Z,79.38
2023-01-19T15:52:09.336Z,79.41
2023-01-19T15:54:38.662Z,79.22
2023-01-19T15:57:08.553Z,78.99
2023-01-19T15:59:40.522Z,78.87
2023-01-19T16:02:13.303Z,78.67
2023-01-19T16:04:43.517Z,78.79
2023-01-19T16:07:12.608Z,78.52
2023-01-19T16:09:42.764Z,78.27
2023-01-19T16:12:12.294Z,78.22
2023-01-19T16:14:41.268Z,78.38
2023-01-19T16:17:10.456Z,78.83
2023-01-19T16:19:39.852Z,79.71
2023-01-19T16:22:10.490Z,79.96
2023-01-19T16:24:40.608Z,80.05
2023-01-19T16:27:10.388Z,79.60
2023-01-19T16:29:40.652Z,79.35
2023-01-19T16:32:10.201Z,78.57
2023-01-19T16:34:39.808Z,78.50
2023-01-19T16:37:08.758Z,78.42
2023-01-19T16:39:38.564Z,77.91
2023-01-19T16:42:07.674Z,78.46
2023-01-19T16:44:43.799Z,78.34
2023-01-19T16:47:12.905Z,78.49
2023-01-19T16:49:42.164Z,78.33
2023-01-19T16:52:11.267Z,78.78
2023-01-19T16:54:44.369Z,78.99
2023-01-19T16:57:17.033Z,78.93
2023-01-19T16:59:46.302Z,78.43
2023-01-19T17:02:16.456Z,79.17
2023-01-19T17:04:48.340Z,79.28
2023-01-19T17:07:19.083Z,78.91
2023-01-19T17:09:48.692Z,78.88
2023-01-19T17:12:20.664Z,78.45
2023-01-19T17:14:50.065Z,78.48
2023-01-19T17:17:19.601Z,78.15
2023-01-19T17:19:49.090Z,77.86
2023-01-19T17:22:18.624Z,78.14
2023-01-19T17:24:48.756Z,77.89
2023-01-19T17:27:17.933Z,78.26
2023-01-19T17:29:49.997Z,78.50
2023-01-19T17:32:19.364Z,78.71
2023-01-19T17:34:50.839Z,79.09
2023-01-19T17:37:20.040Z,79.22
2023-01-19T17:39:49.496Z,79.32
2023-01-19T17:42:24.571Z,79.03
2023-01-19T17:44:56.785Z,78.91
2023-01-19T17:47:26.372Z,78.50
2023-01-19T17:49:56.081Z,78.18
2023-01-19T17:52:25.982Z,78.21
2023-01-19T17:54:55.130Z,78.21
2023-01-19T17:57:24.979Z,78.16
2023-01-19T17:59:55.782Z,78.21
2023-01-19T18:02:28.286Z,78.17
2023-01-19T18:05:02.843Z,78.22
2023-01-19T18:07:40.920Z,78.08
2023-01-19T18:10:14.476Z,78.78
2023-01-19T18:12:46.500Z,78.98
2023-01-19T18:15:19.266Z,78.89
2023-01-19T18:17:49.219Z,78.50
2023-01-19T18:20:19.184Z,78.07
2023-01-19T18:22:48.308Z,78.30
2023-01-19T18:25:17.895Z,78.08
2023-01-19T18:27:47.339Z,78.05
2023-01-19T18:30:19.021Z,78.63
2023-01-19T18:32:51.316Z,78.94
2023-01-19T18:35:20.636Z,78.97
2023-01-19T18:37:49.983Z,79.30
2023-01-19T18:40:19.860Z,78.88
2023-01-19T18:42:48.900Z,78.68
2023-01-19T18:45:18.575Z,78.38
2023-01-19T18:47:51.863Z,78.51
2023-01-19T18:50:24.359Z,78.26
2023-01-19T18:52:53.963Z,78.12
2023-01-19T18:55:23.565Z,78.14
2023-01-19T18:57:53.366Z,78.64
2023-01-19T19:00:23.284Z,78.64
2023-01-19T19:02:51.483Z,78.46
2023-01-19T19:05:20.623Z,78.44
2023-01-19T19:07:49.969Z,78.57
2023-01-19T19:10:20.108Z,78.15
2023-01-19T19:12:48.481Z,78.30
2023-01-19T19:15:18.784Z,78.16
2023-01-19T19:17:51.363Z,77.58
2023-01-19T19:20:22.840Z,77.65
2023-01-19T19:22:52.334Z,77.37
2023-01-19T19:25:21.721Z,77.57
2023-01-19T19:27:56.140Z,77.36
2023-01-19T19:30:25.875Z,77.79
2023-01-19T19:32:56.055Z,78.15
2023-01-19T19:35:26.305Z,78.44
2023-01-19T19:37:58.563Z,78.25
2023-01-19T19:40:30.989Z,78.05
2023-01-19T19:43:12.631Z,77.66
2023-01-19T19:45:41.640Z,77.46
2023-01-19T19:48:13.598Z,77.84
2023-01-19T19:50:42.824Z,78.13
2023-01-19T19:53:12.342Z,78.33
2023-01-19T19:55:41.811Z,78.61
2023-01-19T19:58:14.333Z,78.60
2023-01-19T20:00:45.389Z,78.70
2023-01-19T20:03:14.465Z,78.59
2023-01-19T20:05:44.404Z,78.47
2023-01-19T20:08:14.497Z,78.40
2023-01-19T20:10:43.806Z,77.88
2023-01-19T20:13:15.215Z,78.03
2023-01-19T20:15:45.030Z,78.05
2023-01-19T20:18:17.139Z,77.84
2023-01-19T20:20:47.803Z,77.80
2023-01-19T20:23:20.159Z,77.90
2023-01-19T20:25:50.056Z,77.94
2023-01-19T20:28:19.867Z,78.42
2023-01-19T20:30:50.015Z,77.79
2023-01-19T20:33:22.586Z,77.82
2023-01-19T20:35:55.233Z,77.41
2023-01-19T20:38:24.719Z,77.42
2023-01-19T20:40:57.770Z,77.48
2023-01-19T20:43:27.038Z,77.33
2023-01-19T20:45:56.885Z,77.24
2023-01-19T20:48:26.726Z,77.51
2023-01-19T20:51:00.364Z,77.76
2023-01-19T20:53:30.291Z,77.95
2023-01-19T20:55:58.690Z,77.73
2023-01-19T20:58:31.040Z,77.86
2023-01-19T21:01:00.434Z,78.11
2023-01-19T21:03:29.739Z,78.25
2023-01-19T21:05:59.687Z,78.60
2023-01-19T21:08:29.651Z,78.97
2023-01-19T21:11:00.909Z,79.21
2023-01-19T21:13:31.117Z,79.00
2023-01-19T21:16:01.600Z,78.86
2023-01-19T21:18:31.370Z,78.72
2023-01-19T21:21:01.080Z,78.42
2023-01-19T21:23:31.090Z,77.89
2023-01-19T21:26:13.513Z,78.03
2023-01-19T21:28:43.569Z,77.79
2023-01-19T21:31:14.456Z,77.60
2023-01-19T21:33:44.847Z,77.51
2023-01-19T21:36:13.992Z,77.38
2023-01-19T21:38:44.004Z,77.27
2023-01-19T21:41:18.213Z,76.96
2023-01-19T21:43:48.690Z,77.31
2023-01-19T21:46:21.867Z,77.85
2023-01-19T21:48:51.651Z,77.90
2023-01-19T21:51:21.052Z,77.95
2023-01-19T21:53:54.096Z,77.78
2023-01-19T21:56:23.786Z,77.08
2023-01-19T21:58:53.553Z,76.64
2023-01-19T22:01:23.266Z,76.57
2023-01-19T22:03:55.793Z,76.65
2023-01-19T22:06:26.415Z,76.69
2023-01-19T22:08:57.368Z,76.27
2023-01-19T22:11:27.967Z,76.63
2023-01-19T22:13:59.138Z,76.72
2023-01-19T22:16:29.595Z,76.50
2023-01-19T22:19:01.401Z,76.59
2023-01-19T22:21:33.556Z,77.08
2023-01-19T22:24:04.779Z,77.33
2023-01-19T22:26:36.251Z,77.87
2023-01-19T22:29:13.502Z,77.85
2023-01-19T22:31:42.965Z,77.02
2023-01-19T22:34:13.163Z,77.08
2023-01-19T22:36:46.363Z,76.86
2023-01-19T22:39:15.556Z,76.84
2023-01-19T22:41:46.907Z,76.84
2023-01-19T22:44:23.613Z,76.84
2023-01-19T22:46:57.087Z,76.60
2023-01-19T22:49:29.566Z,76.60
2023-01-19T22:52:08.349Z,76.46
2023-01-19T22:54:41.064Z,76.30
2023-01-19T22:57:11.473Z,76.55
2023-01-19T22:59:40.999Z,76.52
2023-01-19T23:02:14.808Z,76.72
2023-01-19T23:04:44.314Z,76.69
2023-01-19T23:07:13.568Z,77.39
2023-01-19T23:09:45.518Z,77.43
2023-01-19T23:12:20.423Z,77.14
2023-01-19T23:14:49.917Z,76.74
2023-01-19T23:17:19.475Z,76.77
2023-01-19T23:19:49.135Z,76.86
2023-01-19T23:22:19.044Z,76.99
2023-01-19T23:24:48.060Z,76.56
2023-01-19T23:27:17.240Z,76.51
2023-01-19T23:29:47.036Z,76.47
2023-01-19T23:32:16.461Z,76.19
2023-01-19T23:34:45.948Z,76.36
2023-01-19T23:37:15.619Z,76.21
2023-01-19T23:39:48.052Z,76.21
2023-01-19T23:42:17.409Z,76.23
2023-01-19T23:44:46.852Z,76.12
2023-01-19T23:47:15.957Z,76.88
2023-01-19T23:49:44.907Z,77.12
2023-01-19T23:52:15.118Z,76.57
2023-01-19T23:54:44.658Z,76.31
2023-01-19T23:57:17.183Z,76.74
2023-01-19T23:59:46.540Z,76.18
